createdAt,value
2019-01-18T00:02:17.899Z,11.10
2019-01-18T00:04:44.289Z,13.53
2019-01-18T00:07:10.654Z,11.37
2019-01-18T00:09:37.073Z,12.70
2019-01-18T00:12:03.417Z,10.97
2019-01-18T00:14:29.843Z,10.87
2019-01-18T00:16:56.189Z,8.33
2019-01-18T00:19:22.635Z,7.07
2019-01-18T00:21:49.115Z,7.40
2019-01-18T00:24:15.559Z,6.53
2019-01-18T00:26:41.969Z,6.23
2019-01-18T00:29:08.303Z,7.03
2019-01-18T00:31:34.811Z,8.80
2019-01-18T00:34:01.136Z,9.07
2019-01-18T00:36:27.565Z,9.87
2019-01-18T00:38:53.925Z,8.63
2019-01-18T00:41:20.295Z,9.10
2019-01-18T00:43:46.666Z,9.37
2019-01-18T00:46:14.031Z,9.80
2019-01-18T00:48:40.437Z,9.80
2019-01-18T00:51:06.795Z,9.73
2019-01-18T00:53:33.137Z,13.60
2019-01-18T00:55:59.510Z,12.53
2019-01-18T00:58:25.853Z,10.87
2019-01-18T01:00:52.175Z,10.63
2019-01-18T01:03:18.535Z,11.97
2019-01-18T01:05:44.896Z,11.37
2019-01-18T01:08:11.427Z,12.40
2019-01-18T01:10:37.782Z,12.13
2019-01-18T01:13:04.116Z,11.00
2019-01-18T01:15:30.569Z,13.10
2019-01-18T01:17:56.921Z,12.87
2019-01-18T01:20:23.334Z,12.60
2019-01-18T01:22:49.659Z,14.00
2019-01-18T01:25:16.242Z,13.27
2019-01-18T01:27:42.661Z,13.57
2019-01-18T01:30:18.691Z,13.13
2019-01-18T01:32:45.083Z,11.47
2019-01-18T01:35:12.808Z,12.13
2019-01-18T01:37:39.208Z,12.40
2019-01-18T01:40:09.367Z,10.67
2019-01-18T01:42:35.798Z,11.50
2019-01-18T01:45:04.550Z,10.80
2019-01-18T01:47:30.889Z,11.10
2019-01-18T01:49:57.223Z,12.00
2019-01-18T01:52:23.558Z,10.40
2019-01-18T01:54:50.550Z,10.63
2019-01-18T01:57:16.935Z,9.90
2019-01-18T01:59:49.665Z,9.40
2019-01-18T02:02:11.440Z,8.97
2019-01-18T02:04:37.799Z,9.17
2019-01-18T02:07:04.178Z,9.57
2019-01-18T02:09:30.533Z,10.90
2019-01-18T02:11:56.896Z,8.57
2019-01-18T02:14:23.272Z,8.40
2019-01-18T02:16:49.655Z,8.90
2019-01-18T02:19:16.067Z,10.20
2019-01-18T02:21:42.402Z,9.33
2019-01-18T02:24:08.760Z,10.40
2019-01-18T02:26:35.190Z,8.60
2019-01-18T02:29:01.494Z,7.93
2019-01-18T02:31:27.869Z,8.43
2019-01-18T02:33:54.173Z,9.40
2019-01-18T02:36:20.530Z,7.97
2019-01-18T02:38:46.875Z,7.17
2019-01-18T02:41:13.303Z,7.50
2019-01-18T02:43:39.657Z,7.53
2019-01-18T02:46:07.142Z,9.33
2019-01-18T02:48:33.537Z,4.07
2019-01-18T02:50:59.953Z,3.80
2019-01-18T02:53:26.259Z,3.53
2019-01-18T02:55:52.770Z,3.47
2019-01-18T02:58:19.090Z,2.50
2019-01-18T03:00:45.530Z,3.23
2019-01-18T03:03:11.871Z,2.83
2019-01-18T03:05:38.260Z,4.00
2019-01-18T03:08:04.647Z,3.67
2019-01-18T03:10:31.116Z,3.20
2019-01-18T03:12:57.494Z,3.33
2019-01-18T03:15:23.891Z,2.97
2019-01-18T03:17:50.272Z,2.47
2019-01-18T03:20:17.755Z,2.77
2019-01-18T03:22:44.194Z,3.13
2019-01-18T03:25:13.620Z,2.83
2019-01-18T03:27:40.007Z,2.90
2019-01-18T03:30:18.247Z,2.67
2019-01-18T03:32:38.026Z,2.07
2019-01-18T03:35:06.784Z,2.10
2019-01-18T03:37:33.148Z,2.20
2019-01-18T03:39:59.568Z,2.30
2019-01-18T03:42:25.922Z,2.50
2019-01-18T03:44:52.283Z,2.40
2019-01-18T03:47:18.624Z,2.83
2019-01-18T03:49:44.963Z,2.43
2019-01-18T03:52:11.386Z,2.50
2019-01-18T03:54:37.701Z,2.63
2019-01-18T03:57:04.084Z,2.77
2019-01-18T03:59:30.467Z,3.03
2019-01-18T04:01:56.869Z,2.60
2019-01-18T04:04:23.209Z,3.30
2019-01-18T04:06:49.626Z,4.40
2019-01-18T04:09:15.992Z,3.10
2019-01-18T04:11:42.418Z,3.20
2019-01-18T04:14:08.753Z,2.93
2019-01-18T04:16:35.400Z,2.93
2019-01-18T04:19:01.741Z,3.80
2019-01-18T04:21:28.143Z,3.70
2019-01-18T04:23:54.573Z,4.47
2019-01-18T04:26:21.037Z,4.10
2019-01-18T04:28:47.449Z,3.97
2019-01-18T04:31:13.836Z,3.90
2019-01-18T04:33:40.187Z,5.03
2019-01-18T04:36:06.531Z,5.60
2019-01-18T04:38:32.933Z,4.30
2019-01-18T04:40:59.381Z,4.07
2019-01-18T04:43:25.711Z,4.40
2019-01-18T04:45:52.070Z,4.90
2019-01-18T04:48:18.483Z,5.43
2019-01-18T04:50:44.840Z,7.33
2019-01-18T04:53:11.233Z,7.00
2019-01-18T04:55:37.626Z,7.00
2019-01-18T04:58:04.055Z,9.93
2019-01-18T05:00:30.414Z,12.70
2019-01-18T05:02:56.787Z,13.87
2019-01-18T05:05:23.175Z,16.33
2019-01-18T05:07:49.597Z,16.20
2019-01-18T05:10:21.868Z,14.40
2019-01-18T05:12:48.215Z,13.97
2019-01-18T05:15:17.237Z,12.47
2019-01-18T05:17:43.574Z,16.73
2019-01-18T05:20:10.895Z,12.33
2019-01-18T05:22:37.252Z,12.53
2019-01-18T05:25:05.980Z,16.43
2019-01-18T05:27:32.368Z,13.03
2019-01-18T05:29:58.739Z,10.50
2019-01-18T05:32:26.383Z,12.07
2019-01-18T05:34:52.884Z,12.70
2019-01-18T05:37:19.252Z,8.03
2019-01-18T05:39:45.652Z,9.90
2019-01-18T05:42:12.066Z,4.67
2019-01-18T05:44:38.429Z,4.23
2019-01-18T05:47:04.830Z,4.47
2019-01-18T05:49:31.266Z,4.47
2019-01-18T05:51:57.594Z,6.10
2019-01-18T05:54:23.950Z,4.00
2019-01-18T05:56:50.369Z,4.37
2019-01-18T05:59:16.911Z,3.83
2019-01-18T06:01:43.251Z,5.17
2019-01-18T06:04:10.282Z,5.83
2019-01-18T06:06:36.663Z,5.67
2019-01-18T06:09:05.739Z,4.63
2019-01-18T06:11:32.123Z,6.10
2019-01-18T06:13:58.464Z,5.90
2019-01-18T06:16:24.894Z,6.50
2019-01-18T06:18:51.207Z,6.40
2019-01-18T06:21:17.612Z,5.53
2019-01-18T06:23:43.931Z,6.30
2019-01-18T06:26:10.323Z,5.97
2019-01-18T06:28:36.791Z,5.63
2019-01-18T06:31:03.197Z,8.53
2019-01-18T06:33:30.017Z,4.60
2019-01-18T06:35:56.478Z,6.77
2019-01-18T06:38:22.897Z,8.67
2019-01-18T06:40:50.185Z,10.50
2019-01-18T06:43:16.519Z,9.33
2019-01-18T06:45:42.889Z,8.47
2019-01-18T06:48:11.118Z,7.53
2019-01-18T06:50:37.481Z,7.80
2019-01-18T06:53:03.860Z,4.93
2019-01-18T06:55:30.220Z,7.67
2019-01-18T06:57:56.627Z,7.70
2019-01-18T07:00:25.400Z,6.47
2019-01-18T07:02:51.754Z,7.80
2019-01-18T07:05:18.121Z,8.27
2019-01-18T07:07:44.499Z,9.97
2019-01-18T07:10:20.446Z,5.03
2019-01-18T07:12:41.809Z,5.40
2019-01-18T07:15:10.097Z,5.07
2019-01-18T07:17:36.517Z,4.00
2019-01-18T07:20:09.429Z,4.63
2019-01-18T07:22:35.838Z,5.13
2019-01-18T07:25:04.632Z,5.83
2019-01-18T07:27:32.097Z,6.93
2019-01-18T07:29:58.446Z,7.27
2019-01-18T07:32:25.806Z,5.40
2019-01-18T07:34:52.187Z,8.50
2019-01-18T07:37:18.614Z,7.63
2019-01-18T07:39:45.063Z,8.83
2019-01-18T07:42:11.473Z,16.93
2019-01-18T07:44:37.890Z,8.80
2019-01-18T07:47:04.275Z,6.57
2019-01-18T07:49:30.629Z,7.33
2019-01-18T07:51:57.011Z,7.03
2019-01-18T07:54:23.357Z,9.47
2019-01-18T07:56:49.725Z,6.97
2019-01-18T07:59:16.077Z,6.07
2019-01-18T08:01:42.488Z,8.43
2019-01-18T08:04:08.842Z,11.07
2019-01-18T08:06:35.271Z,8.87
2019-01-18T08:09:01.681Z,9.93
2019-01-18T08:11:29.997Z,11.53
2019-01-18T08:13:56.384Z,8.90
2019-01-18T08:16:22.725Z,11.23
2019-01-18T08:18:49.132Z,10.03
2019-01-18T08:21:15.448Z,14.43
2019-01-18T08:23:41.923Z,15.33
2019-01-18T08:26:10.023Z,12.47
2019-01-18T08:28:36.755Z,27.10
2019-01-18T08:31:03.118Z,19.43
2019-01-18T08:33:29.528Z,25.10
2019-01-18T08:35:55.922Z,18.13
2019-01-18T08:38:22.415Z,13.07
2019-01-18T08:40:48.802Z,21.57
2019-01-18T08:43:15.301Z,14.17
2019-01-18T08:45:44.223Z,12.73
2019-01-18T08:48:10.559Z,9.33
2019-01-18T08:50:37.824Z,7.97
2019-01-18T08:53:04.134Z,7.07
2019-01-18T08:55:42.004Z,5.73
2019-01-18T08:58:11.503Z,10.23
2019-01-18T09:00:37.791Z,8.73
2019-01-18T09:03:04.368Z,11.30
2019-01-18T09:05:30.913Z,15.40
2019-01-18T09:07:57.344Z,17.43
2019-01-18T09:10:26.430Z,18.63
2019-01-18T09:12:52.916Z,27.47
2019-01-18T09:15:19.410Z,14.43
2019-01-18T09:17:46.003Z,19.73
2019-01-18T09:20:20.923Z,12.57
2019-01-18T09:22:47.312Z,23.47
2019-01-18T09:25:14.306Z,12.33
2019-01-18T09:27:40.711Z,15.03
2019-01-18T09:30:15.174Z,15.23
2019-01-18T09:32:41.772Z,7.90
2019-01-18T09:35:10.824Z,9.90
2019-01-18T09:37:37.275Z,9.57
2019-01-18T09:42:57.913Z,6.87
2019-01-18T09:45:24.309Z,11.20
2019-01-18T09:47:50.700Z,8.03
2019-01-18T09:50:23.261Z,12.83
2019-01-18T09:52:49.663Z,6.63
2019-01-18T09:55:16.002Z,11.93
2019-01-18T09:57:42.374Z,7.47
2019-01-18T10:00:14.736Z,13.27
2019-01-18T10:02:41.087Z,10.67
2019-01-18T10:05:10.082Z,17.67
2019-01-18T10:07:36.429Z,13.73
2019-01-18T10:10:09.507Z,7.93
2019-01-18T10:12:35.808Z,8.00
2019-01-18T10:15:03.814Z,7.70
2019-01-18T10:17:30.207Z,6.90
2019-01-18T10:19:56.569Z,10.37
2019-01-18T10:22:22.978Z,7.40
2019-01-18T10:24:49.392Z,5.97
2019-01-18T10:27:15.771Z,8.57
2019-01-18T10:29:42.228Z,7.50
2019-01-18T10:32:08.583Z,8.77
2019-01-18T10:34:34.924Z,9.17
2019-01-18T10:37:01.324Z,6.20
2019-01-18T10:39:27.647Z,25.60
2019-01-18T10:41:54.009Z,10.67
2019-01-18T10:44:20.355Z,10.50
2019-01-18T10:46:46.777Z,8.80
2019-01-18T10:49:13.114Z,9.10
2019-01-18T10:51:39.507Z,9.17
2019-01-18T10:54:05.859Z,7.47
2019-01-18T10:56:32.289Z,11.93
2019-01-18T10:58:58.681Z,10.03
2019-01-18T11:01:25.130Z,7.83
2019-01-18T11:03:51.560Z,6.20
2019-01-18T11:06:17.894Z,5.67
2019-01-18T11:08:44.267Z,7.33
2019-01-18T11:11:10.676Z,5.90
2019-01-18T11:13:37.086Z,3.73
2019-01-18T11:16:03.463Z,5.93
2019-01-18T11:18:29.853Z,8.83
2019-01-18T11:20:56.222Z,8.03
2019-01-18T11:23:22.609Z,9.03
2019-01-18T11:25:49.191Z,10.27
2019-01-18T11:28:15.607Z,12.70
2019-01-18T11:30:41.975Z,9.57
2019-01-18T11:33:08.498Z,5.60
2019-01-18T11:35:35.297Z,5.33
2019-01-18T11:38:02.153Z,14.43
2019-01-18T11:40:28.583Z,38.73
2019-01-18T11:42:54.974Z,18.37
2019-01-18T11:45:21.571Z,17.27
2019-01-18T11:47:47.918Z,14.07
2019-01-18T11:50:20.689Z,29.03
2019-01-18T11:52:48.339Z,10.10
2019-01-18T11:55:14.883Z,14.87
2019-01-18T11:57:41.514Z,11.93
2019-01-18T12:00:19.851Z,11.10
2019-01-18T12:02:46.299Z,10.00
2019-01-18T12:05:12.691Z,12.37
2019-01-18T12:07:39.041Z,10.20
2019-01-18T12:10:28.175Z,14.37
2019-01-18T12:12:54.774Z,16.33
2019-01-18T12:15:22.238Z,11.17
2019-01-18T12:17:48.693Z,30.10
2019-01-18T12:20:23.562Z,16.23
2019-01-18T12:22:49.958Z,21.83
2019-01-18T12:25:17.187Z,17.77
2019-01-18T12:27:43.747Z,13.53
2019-01-18T12:30:17.166Z,20.30
2019-01-18T12:32:43.720Z,24.93
2019-01-18T12:35:10.159Z,27.63
2019-01-18T12:37:36.611Z,13.63
2019-01-18T12:40:03.461Z,10.67
2019-01-18T12:42:29.913Z,12.47
2019-01-18T12:44:56.629Z,13.27
2019-01-18T12:47:23.901Z,13.20
2019-01-18T12:49:50.316Z,15.07
2019-01-18T12:52:16.682Z,7.57
2019-01-18T12:54:43.054Z,10.33
2019-01-18T12:57:09.474Z,6.20
2019-01-18T12:59:35.905Z,10.73
2019-01-18T13:02:02.541Z,10.43
2019-01-18T13:04:28.940Z,13.00
2019-01-18T13:06:55.301Z,14.87
2019-01-18T13:09:21.679Z,11.67
2019-01-18T13:11:48.119Z,17.77
2019-01-18T13:14:14.539Z,28.63
2019-01-18T13:16:40.963Z,35.23
2019-01-18T13:19:07.397Z,9.17
2019-01-18T13:21:33.872Z,16.70
2019-01-18T13:24:00.250Z,18.97
2019-01-18T13:26:26.616Z,19.03
2019-01-18T13:28:53.208Z,17.60
2019-01-18T13:31:19.633Z,16.63
2019-01-18T13:33:46.033Z,11.77
2019-01-18T13:36:13.638Z,16.07
2019-01-18T13:38:41.202Z,8.00
2019-01-18T13:41:07.604Z,18.60
2019-01-18T13:43:34.034Z,16.13
2019-01-18T13:46:00.449Z,18.43
2019-01-18T13:48:26.830Z,12.03
2019-01-18T13:50:53.268Z,19.33
2019-01-18T13:53:19.680Z,21.93
2019-01-18T13:55:46.058Z,14.07
2019-01-18T13:58:12.473Z,11.03
2019-01-18T14:00:38.822Z,6.50
2019-01-18T14:03:05.296Z,16.43
2019-01-18T14:05:31.656Z,9.63
2019-01-18T14:07:58.102Z,23.00
2019-01-18T14:10:29.434Z,62.20
2019-01-18T14:12:55.869Z,52.33
2019-01-18T14:15:23.830Z,15.97
2019-01-18T14:17:50.258Z,6.13
2019-01-18T14:20:22.638Z,10.53
2019-01-18T14:22:49.788Z,9.50
2019-01-18T14:25:16.241Z,15.40
2019-01-18T14:27:42.663Z,12.63
2019-01-18T14:30:14.769Z,5.63
2019-01-18T14:32:42.598Z,7.70
2019-01-18T14:35:09.085Z,27.60
2019-01-18T14:37:35.485Z,37.50
2019-01-18T14:40:05.008Z,36.03
2019-01-18T14:42:31.409Z,39.40
2019-01-18T14:44:57.801Z,20.97
2019-01-18T14:47:24.209Z,5.23
2019-01-18T14:49:50.602Z,19.90
2019-01-18T14:52:17.027Z,18.47
2019-01-18T14:54:43.438Z,25.43
2019-01-18T14:57:09.854Z,9.57
2019-01-18T14:59:36.315Z,9.07
2019-01-18T15:02:03.043Z,11.93
2019-01-18T15:04:29.398Z,17.73
2019-01-18T15:06:55.781Z,10.13
2019-01-18T15:09:22.128Z,17.00
2019-01-18T15:11:48.524Z,13.63
2019-01-18T15:14:14.852Z,26.60
2019-01-18T15:16:41.258Z,8.77
2019-01-18T15:19:07.646Z,7.53
2019-01-18T15:21:34.035Z,8.47
2019-01-18T15:24:00.418Z,12.27
2019-01-18T15:26:26.824Z,9.73
2019-01-18T15:28:53.183Z,8.57
2019-01-18T15:31:19.748Z,13.00
2019-01-18T15:33:46.265Z,28.30
2019-01-18T15:36:12.869Z,33.50
2019-01-18T15:38:39.371Z,22.90
2019-01-18T15:41:05.776Z,20.80
2019-01-18T15:43:32.274Z,41.83
2019-01-18T15:45:58.723Z,41.80
2019-01-18T15:48:25.189Z,52.23
2019-01-18T15:50:51.610Z,36.87
2019-01-18T15:53:18.167Z,34.93
2019-01-18T15:55:44.577Z,38.00
2019-01-18T15:58:11.121Z,43.97
2019-01-18T16:00:41.773Z,51.53
2019-01-18T16:03:15.638Z,56.90
2019-01-18T16:05:38.109Z,95.00
2019-01-18T16:08:05.332Z,67.87
2019-01-18T16:10:31.726Z,53.33
2019-01-18T16:12:58.305Z,37.97
2019-01-18T16:15:31.379Z,46.07
2019-01-18T16:17:57.817Z,38.23
2019-01-18T16:20:24.214Z,43.43
2019-01-18T16:22:50.670Z,41.57
2019-01-18T16:25:20.040Z,43.10
2019-01-18T16:27:47.573Z,43.00
2019-01-18T16:30:18.968Z,38.07
2019-01-18T16:32:45.371Z,40.13
2019-01-18T16:35:13.756Z,38.73
2019-01-18T16:37:40.151Z,23.00
2019-01-18T16:40:10.235Z,27.97
2019-01-18T16:42:36.716Z,35.30
2019-01-18T16:45:06.949Z,34.67
2019-01-18T16:47:33.428Z,39.60
2019-01-18T16:49:59.907Z,34.20
2019-01-18T16:52:26.463Z,44.30
2019-01-18T16:54:52.958Z,53.73
2019-01-18T16:57:19.503Z,41.40
2019-01-18T16:59:45.868Z,42.47
2019-01-18T17:02:12.446Z,47.00
2019-01-18T17:04:38.805Z,54.87
2019-01-18T17:07:05.556Z,57.07
2019-01-18T17:09:31.919Z,45.63
2019-01-18T17:11:58.341Z,34.10
2019-01-18T17:14:24.739Z,29.63
2019-01-18T17:16:51.097Z,25.63
2019-01-18T17:19:17.555Z,14.90
2019-01-18T17:21:43.873Z,15.30
2019-01-18T17:24:10.353Z,21.13
2019-01-18T17:26:36.742Z,11.30
2019-01-18T17:29:03.128Z,9.67
2019-01-18T17:31:29.532Z,9.50
2019-01-18T17:33:55.974Z,10.73
2019-01-18T17:36:25.317Z,9.20
2019-01-18T17:39:14.173Z,7.50
2019-01-18T17:41:53.035Z,11.63
2019-01-18T17:44:43.196Z,8.13
2019-01-18T17:47:13.404Z,49.33
2019-01-18T17:49:52.594Z,18.90
2019-01-18T17:52:25.414Z,9.97
2019-01-18T17:54:55.565Z,12.60
2019-01-18T17:57:45.390Z,10.60
2019-01-18T18:00:21.538Z,13.80
2019-01-18T18:02:57.443Z,7.83
2019-01-18T18:05:47.387Z,6.63
2019-01-18T18:08:20.598Z,7.20
2019-01-18T18:11:09.430Z,12.13
2019-01-18T18:13:59.578Z,6.40
2019-01-18T18:16:38.921Z,9.03
2019-01-18T18:19:29.303Z,9.80
2019-01-18T18:22:25.574Z,7.73
2019-01-18T18:24:58.596Z,11.60
2019-01-18T18:27:54.969Z,11.80
2019-01-18T18:30:25.235Z,8.13
2019-01-18T18:32:55.750Z,6.23
2019-01-18T18:35:34.695Z,8.27
2019-01-18T18:38:08.043Z,8.13
2019-01-18T18:41:06.115Z,8.80
2019-01-18T18:43:54.725Z,8.20
2019-01-18T18:46:59.785Z,8.50
2019-01-18T18:49:38.939Z,7.63
2019-01-18T18:52:21.429Z,9.37
2019-01-18T18:55:11.773Z,10.30
2019-01-18T18:57:56.477Z,10.70
2019-01-18T19:00:30.047Z,12.10
2019-01-18T19:03:06.582Z,26.90
2019-01-18T19:05:36.961Z,19.53
2019-01-18T19:08:13.019Z,11.90
2019-01-18T19:10:49.269Z,13.87
2019-01-18T19:13:19.501Z,15.20
2019-01-18T19:16:05.174Z,12.30
2019-01-18T19:19:08.375Z,11.57
2019-01-18T19:21:50.517Z,11.00
2019-01-18T19:24:30.156Z,9.63
2019-01-18T19:27:34.503Z,8.07
2019-01-18T19:30:16.308Z,7.63
2019-01-18T19:32:55.790Z,7.93
2019-01-18T19:35:34.369Z,11.93
2019-01-18T19:38:21.217Z,30.00
2019-01-18T19:41:03.014Z,37.37
2019-01-18T19:43:45.211Z,36.90
2019-01-18T19:46:32.128Z,37.33
2019-01-18T19:49:20.103Z,19.47
2019-01-18T19:51:59.330Z,14.10
2019-01-18T19:54:29.660Z,10.87
2019-01-18T19:57:17.827Z,10.07
2019-01-18T19:59:51.017Z,9.33
2019-01-18T20:02:21.239Z,10.47
2019-01-18T20:05:17.433Z,8.47
2019-01-18T20:07:53.996Z,9.67
2019-01-18T20:10:54.864Z,8.90
2019-01-18T20:13:44.840Z,9.23
2019-01-18T20:16:28.558Z,9.50
2019-01-18T20:19:13.644Z,8.97
2019-01-18T20:21:58.644Z,9.10
2019-01-18T20:25:02.553Z,8.97
2019-01-18T20:27:32.855Z,8.00
2019-01-18T20:30:34.405Z,9.43
2019-01-18T20:33:16.545Z,9.07
2019-01-18T20:36:02.005Z,9.07
2019-01-18T20:39:05.799Z,8.47
2019-01-18T20:41:49.933Z,8.87
2019-01-18T20:44:35.565Z,10.53
2019-01-18T20:47:11.585Z,11.07
2019-01-18T20:49:51.214Z,10.40
2019-01-18T20:52:24.490Z,10.40
2019-01-18T20:55:01.318Z,9.13
2019-01-18T20:57:40.841Z,11.07
2019-01-18T21:00:26.654Z,11.60
2019-01-18T21:03:09.505Z,9.80
2019-01-18T21:05:54.531Z,11.27
2019-01-18T21:08:27.458Z,11.53
2019-01-18T21:11:06.651Z,10.27
2019-01-18T21:13:59.944Z,11.57
2019-01-18T21:16:50.027Z,10.60
2019-01-18T21:19:32.311Z,12.13
2019-01-18T21:22:36.551Z,12.53
2019-01-18T21:25:22.136Z,13.50
2019-01-18T21:28:18.520Z,13.67
2019-01-18T21:31:14.124Z,13.10
2019-01-18T21:34:01.193Z,14.77
2019-01-18T21:36:52.920Z,14.67
2019-01-18T21:39:38.597Z,13.37
2019-01-18T21:42:08.931Z,13.10
2019-01-18T21:44:42.012Z,12.93
2019-01-18T21:47:12.215Z,13.67
2019-01-18T21:49:45.524Z,14.27
2019-01-18T21:52:27.413Z,13.30
2019-01-18T21:55:09.609Z,13.40
2019-01-18T21:57:42.797Z,13.27
2019-01-18T22:00:40.713Z,13.63
2019-01-18T22:03:23.365Z,15.37
2019-01-18T22:06:11.592Z,14.57
2019-01-18T22:08:45.048Z,13.23
2019-01-18T22:11:24.451Z,13.27
2019-01-18T22:14:03.561Z,12.73
2019-01-18T22:16:42.430Z,13.60
2019-01-18T22:19:29.988Z,14.00
2019-01-18T22:22:08.803Z,14.13
2019-01-18T22:24:39.009Z,17.17
2019-01-18T22:27:15.423Z,14.03
2019-01-18T22:29:48.541Z,15.03
2019-01-18T22:32:30.392Z,14.53
2019-01-18T22:35:03.517Z,14.10
2019-01-18T22:37:36.882Z,13.70
2019-01-18T22:40:33.244Z,15.33
2019-01-18T22:43:13.343Z,14.33
2019-01-18T22:45:49.025Z,15.90
2019-01-18T22:48:35.286Z,13.47
2019-01-18T22:51:22.361Z,14.83
2019-01-18T22:54:16.926Z,14.27
2019-01-18T22:56:47.139Z,14.63
2019-01-18T22:59:43.234Z,15.20
2019-01-18T23:02:25.567Z,15.73
2019-01-18T23:05:08.199Z,13.67
2019-01-18T23:07:47.062Z,14.27
2019-01-18T23:10:17.319Z,13.53
2019-01-18T23:12:53.252Z,13.67
2019-01-18T23:15:29.863Z,12.80
2019-01-18T23:18:00.062Z,13.23
2019-01-18T23:20:39.533Z,13.90
2019-01-18T23:23:15.455Z,13.90
2019-01-18T23:26:03.505Z,14.17
2019-01-18T23:28:42.653Z,13.13
2019-01-18T23:31:18.591Z,15.27
2019-01-18T23:33:48.826Z,13.17
2019-01-18T23:36:21.818Z,12.93
2019-01-18T23:39:14.739Z,13.27
2019-01-18T23:41:45.001Z,11.97
2019-01-18T23:44:21.057Z,12.33
2019-01-18T23:46:57.312Z,12.07
2019-01-18T23:49:44.400Z,10.57
2019-01-18T23:52:20.643Z,12.73
2019-01-18T23:55:11.979Z,11.70
2019-01-18T23:58:03.439Z,11.97
